| time (UTC) | temp F | wind direction | speed MPH | gust MPH | rain 1hr in | rain 24hr in | rain mn in | humidity % | barometer mb |
| 20260503220012 | 49 | 224 | 0.0 | 7.0 | 0.01 | 0.05 | 0.05 | 84 | 1009.9 |
| 20260503214511 | 49 | 224 | 3.0 | 10.0 | 0.01 | 0.04 | 0.04 | 84 | 1009.9 |
| 20260503213017 | 48 | 225 | 7.0 | 14.0 | 0.01 | 0.04 | 0.04 | 84 | 1009.7 |
| 20260503211509 | 48 | 166 | 6.0 | 12.0 | 0.01 | 0.04 | 0.04 | 85 | 1009.6 |
| 20260503210009 | 48 | 231 | 7.0 | 16.0 | 0.01 | 0.04 | 0.04 | 84 | 1009.7 |
| 20260503204507 | 48 | 233 | 10.0 | 16.0 | 0.00 | 0.03 | 0.03 | 82 | 1009.7 |
| 20260503203013 | 48 | 228 | 9.0 | 14.0 | 0.00 | 0.03 | 0.03 | 84 | 1009.7 |
| 20260503201505 | 48 | 227 | 8.0 | 14.0 | 0.00 | 0.03 | 0.03 | 85 | 1009.9 |
| 20260503200006 | 48 | 231 | 8.0 | 17.0 | 0.02 | 0.03 | 0.03 | 85 | 1010.3 |
| 20260503194600 | 47 | 238 | 9.0 | 14.0 | 0.03 | 0.03 | 0.03 | 86 | 1010.3 |
| 20260503193112 | 46 | 207 | 7.0 | 11.0 | 0.03 | 0.03 | 0.03 | 86 | 1010.8 |
| 20260503191606 | 46 | 217 | 5.0 | 9.0 | 0.03 | 0.03 | 0.03 | 85 | 1011.1 |
| 20260503190103 | 47 | 234 | 4.0 | 10.0 | 0.02 | 0.02 | 0.02 | 82 | 1011.7 |
| 20260503184556 | 50 | 248 | 6.0 | 17.0 | 0.00 | 0.00 | 0.00 | 70 | 1011.6 |
| 20260503183112 | 54 | 264 | 10.0 | 21.0 | 0.00 | 0.00 | 0.00 | 56 | 1011.3 |
| 20260503181619 | 56 | 294 | 7.0 | 14.0 | 0.00 | 0.00 | 0.00 | 51 | 1010.9 |
| 20260503180052 | 54 | 245 | 5.0 | 17.0 | 0.00 | 0.00 | 0.00 | 52 | 1011.0 |
| 20260503174549 | 55 | 229 | 6.0 | 16.0 | 0.00 | 0.00 | 0.00 | 51 | 1011.2 |
| 20260503173055 | 55 | 212 | 10.0 | 19.0 | 0.00 | 0.00 | 0.00 | 49 | 1011.7 |
| 20260503171545 | 54 | 251 | 7.0 | 15.0 | 0.00 | 0.00 | 0.00 | 48 | 1011.8 |
| 20260503081511 | 34 | 242 | 5.0 | 9.0 | 0.00 | 0.00 | 0.00 | 73 | 1015.1 |
| 20260503071501 | 32 | 219 | 2.0 | 6.0 | 0.00 | 0.00 | 0.00 | 78 | 1015.2 |
| 20260503070113 | 32 | 225 | 0.0 | 0.0 | 0.00 | 0.00 | 0.00 | 78 | 1015.3 |
| 20260503060114 | 32 | 211 | 1.0 | 4.0 | 0.00 | 0.00 | 0.00 | 78 | 1015.9 |
| 20260503054547 | 30 | 226 | 1.0 | 4.0 | 0.00 | 0.00 | 0.00 | 85 | 1016.0 |
| 20260503053044 | 29 | 307 | 0.0 | 0.0 | 0.00 | 0.00 | 0.00 | 86 | 1016.3 |
| 20260503051547 | 29 | 307 | 0.0 | 0.0 | 0.00 | 0.00 | 0.00 | 85 | 1016.4 |
| 20260503050041 | 29 | 307 | 0.0 | 0.0 | 0.00 | 0.00 | 0.00 | 84 | 1016.6 |
| 20260503044542 | 29 | 307 | 0.0 | 0.0 | 0.00 | 0.00 | 0.00 | 84 | 1016.8 |
| 20260503043037 | 30 | 307 | 0.0 | 0.0 | 0.00 | 0.00 | 0.00 | 84 | 1017.0 |
| 20260503041536 | 30 | 307 | 0.0 | 0.0 | 0.00 | 0.00 | 0.00 | 83 | 1017.1 |
| 20260503040035 | 30 | 307 | 0.0 | 0.0 | 0.00 | 0.00 | 0.00 | 83 | 1017.2 |
| 20260503034532 | 30 | 307 | 0.0 | 0.0 | 0.00 | 0.00 | 0.00 | 82 | 1017.3 |
| 20260503033033 | 31 | 307 | 0.0 | 0.0 | 0.00 | 0.00 | 0.00 | 81 | 1017.3 |
| 20260503031529 | 31 | 307 | 0.0 | 0.0 | 0.00 | 0.00 | 0.00 | 79 | 1017.4 |
| 20260503030028 | 31 | 307 | 0.0 | 0.0 | 0.00 | 0.00 | 0.00 | 79 | 1017.4 |
| 20260503024527 | 31 | 307 | 0.0 | 0.0 | 0.00 | 0.00 | 0.00 | 79 | 1017.6 |
| 20260503023024 | 32 | 307 | 0.0 | 0.0 | 0.00 | 0.00 | 0.00 | 78 | 1017.7 |
| 20260503021524 | 32 | 307 | 0.0 | 0.0 | 0.00 | 0.00 | 0.00 | 77 | 1017.7 |
| 20260503020023 | 33 | 307 | 0.0 | 0.0 | 0.00 | 0.00 | 0.00 | 74 | 1017.5 |
| 20260503014521 | 34 | 307 | 0.0 | 0.0 | 0.00 | 0.00 | 0.00 | 72 | 1017.5 |
| 20260503013021 | 35 | 307 | 0.0 | 0.0 | 0.00 | 0.00 | 0.00 | 70 | 1017.5 |
| 20260503011522 | 36 | 307 | 0.0 | 0.0 | 0.00 | 0.00 | 0.00 | 66 | 1017.5 |
| 20260503010021 | 37 | 307 | 0.0 | 0.0 | 0.00 | 0.00 | 0.00 | 62 | 1017.5 |
| 20260503004520 | 38 | 307 | 0.0 | 0.0 | 0.00 | 0.00 | 0.00 | 57 | 1017.4 |
| 20260503003020 | 40 | 307 | 0.0 | 0.0 | 0.00 | 0.00 | 0.00 | 53 | 1017.5 |
| 20260503001520 | 41 | 307 | 0.0 | 2.0 | 0.00 | 0.00 | 0.00 | 45 | 1017.5 |
| 20260503000020 | 42 | 310 | 1.0 | 6.0 | 0.00 | 0.00 | 0.00 | 43 | 1017.5 |
| 20260502234518 | 43 | 292 | 2.0 | 9.0 | 0.00 | 0.00 | 0.00 | 41 | 1017.4 |
| 20260502233020 | 43 | 301 | 2.0 | 10.0 | 0.00 | 0.00 | 0.00 | 41 | 1017.4 |
| 20260502231519 | 44 | 319 | 3.0 | 9.0 | 0.00 | 0.00 | 0.00 | 40 | 1017.4 |
| 20260502230022 | 44 | 271 | 3.0 | 9.0 | 0.00 | 0.00 | 0.00 | 39 | 1017.3 |
| 20260502224514 | 45 | 286 | 4.0 | 9.0 | 0.00 | 0.00 | 0.00 | 38 | 1017.6 |
| 20260502223014 | 45 | 315 | 3.0 | 9.0 | 0.00 | 0.00 | 0.00 | 37 | 1017.5 |
| 20260502221513 | 45 | 293 | 3.0 | 9.0 | 0.00 | 0.00 | 0.00 | 37 | 1017.5 |